createdAt,value
2022-12-24T00:01:06.976Z,99.90
2022-12-24T00:03:35.265Z,99.90
2022-12-24T00:06:18.292Z,99.90
2022-12-24T00:08:45.282Z,99.90
2022-12-24T00:11:12.594Z,99.90
2022-12-24T00:13:39.905Z,99.90
2022-12-24T00:16:07.175Z,99.90
2022-12-24T00:18:36.499Z,99.90
2022-12-24T00:21:07.268Z,99.90
2022-12-24T00:23:34.187Z,99.90
2022-12-24T00:26:01.323Z,99.90
2022-12-24T00:28:28.395Z,77.80
2022-12-24T00:30:55.846Z,74.70
2022-12-24T00:33:24.759Z,60.40
2022-12-24T00:35:52.755Z,19.70
2022-12-24T00:38:19.789Z,12.00
2022-12-24T00:40:46.660Z,1.00
2022-12-24T00:43:13.632Z,1.00
2022-12-24T00:45:40.519Z,1.00
2022-12-24T00:48:07.422Z,12.80
2022-12-24T00:50:34.510Z,40.40
2022-12-24T00:53:01.463Z,99.90
2022-12-24T00:55:28.369Z,99.90
2022-12-24T00:57:55.317Z,99.90
2022-12-24T01:00:22.286Z,99.90
2022-12-24T01:02:49.361Z,99.90
2022-12-24T01:05:20.695Z,99.90
2022-12-24T01:07:49.080Z,99.90
2022-12-24T01:10:19.254Z,99.90
2022-12-24T01:12:47.534Z,99.90
2022-12-24T01:15:15.782Z,99.90
2022-12-24T01:17:42.711Z,99.90
2022-12-24T01:20:14.036Z,99.90
2022-12-24T01:22:40.999Z,99.90
2022-12-24T01:25:08.351Z,99.90
2022-12-24T01:27:35.769Z,99.90
2022-12-24T01:30:06.221Z,99.90
2022-12-24T01:32:33.788Z,99.90
2022-12-24T01:40:49.383Z,99.90
2022-12-24T01:46:27.923Z,99.90
2022-12-24T01:49:06.426Z,99.90
2022-12-24T01:55:12.825Z,99.90
2022-12-24T01:58:49.453Z,99.90
2022-12-24T02:01:58.249Z,99.90
2022-12-24T02:04:57.802Z,99.90
2022-12-24T02:07:25.497Z,99.90
2022-12-24T02:09:57.716Z,99.90
2022-12-24T02:12:27.231Z,99.90
2022-12-24T02:14:54.892Z,99.90
2022-12-24T02:17:39.981Z,99.90
2022-12-24T02:20:21.498Z,99.90
2022-12-24T02:23:00.292Z,99.90
2022-12-24T02:25:33.353Z,99.90
2022-12-24T02:28:02.508Z,99.90
2022-12-24T02:30:42.118Z,99.90
2022-12-24T02:33:31.827Z,99.90
2022-12-24T02:36:31.149Z,99.90
2022-12-24T02:39:14.424Z,99.90
2022-12-24T02:42:07.054Z,99.90
2022-12-24T02:44:45.344Z,99.90
2022-12-24T02:47:13.834Z,99.90
2022-12-24T02:49:45.724Z,99.90
2022-12-24T02:52:35.837Z,99.90
2022-12-24T02:55:41.487Z,99.90
2022-12-24T02:58:08.357Z,99.90
2022-12-24T03:01:18.137Z,99.90
2022-12-24T03:04:39.586Z,99.90
2022-12-24T03:07:10.852Z,99.90
2022-12-24T03:09:49.483Z,99.90
2022-12-24T03:12:21.348Z,99.90
2022-12-24T03:14:49.678Z,99.90
2022-12-24T03:17:19.096Z,99.90
2022-12-24T03:19:47.095Z,99.90
2022-12-24T03:22:16.104Z,99.90
2022-12-24T03:24:44.655Z,99.90
2022-12-24T03:27:13.558Z,1.00
2022-12-24T03:29:42.052Z,1.00
2022-12-24T03:32:09.039Z,1.00
2022-12-24T03:34:35.964Z,1.00
2022-12-24T03:37:02.943Z,1.00
2022-12-24T03:39:29.927Z,1.00
2022-12-24T03:41:56.840Z,1.00
2022-12-24T03:44:23.722Z,99.90
2022-12-24T03:46:50.704Z,1.00
2022-12-24T03:49:17.651Z,1.00
2022-12-24T03:51:44.537Z,1.00
2022-12-24T03:54:11.461Z,1.00
2022-12-24T03:56:38.362Z,1.00
2022-12-24T03:59:05.347Z,1.00
2022-12-24T04:01:32.565Z,1.00
2022-12-24T04:03:59.589Z,1.00
2022-12-24T04:06:26.615Z,1.00
2022-12-24T04:08:53.612Z,1.00
2022-12-24T04:11:20.655Z,1.00
2022-12-24T04:13:47.602Z,1.00
2022-12-24T04:16:17.058Z,1.00
2022-12-24T04:18:44.349Z,1.00
2022-12-24T04:21:11.628Z,1.00
2022-12-24T04:23:39.649Z,1.00
2022-12-24T04:26:09.218Z,1.00
2022-12-24T04:28:37.286Z,1.00
2022-12-24T04:31:07.272Z,1.00
2022-12-24T04:33:34.631Z,1.00
2022-12-24T04:36:04.029Z,1.00
2022-12-24T04:38:31.820Z,1.00
2022-12-24T04:41:06.584Z,1.00
2022-12-24T04:43:34.002Z,1.00
2022-12-24T04:46:10.179Z,1.00
2022-12-24T04:48:37.997Z,1.00
2022-12-24T04:51:05.996Z,1.00
2022-12-24T04:53:33.630Z,1.00
2022-12-24T04:56:01.090Z,1.00
2022-12-24T04:58:28.036Z,1.00
2022-12-24T05:00:55.457Z,1.00
2022-12-24T05:03:22.483Z,1.00
2022-12-24T05:05:49.492Z,1.00
2022-12-24T05:08:16.354Z,1.00
2022-12-24T05:10:43.316Z,1.00
2022-12-24T05:13:10.241Z,1.00
2022-12-24T05:15:37.174Z,1.00
2022-12-24T05:18:04.204Z,1.00
2022-12-24T05:20:31.058Z,1.00
2022-12-24T05:23:16.494Z,1.00
2022-12-24T05:26:02.030Z,1.00
2022-12-24T05:28:28.979Z,1.00
2022-12-24T05:30:55.862Z,1.00
2022-12-24T05:33:22.722Z,1.00
2022-12-24T05:35:52.495Z,1.00
2022-12-24T05:38:19.422Z,1.00
2022-12-24T05:40:47.128Z,1.00
2022-12-24T05:43:14.222Z,1.00
2022-12-24T05:45:41.139Z,1.00
2022-12-24T05:48:08.262Z,1.00
2022-12-24T05:50:36.494Z,1.00
2022-12-24T05:53:03.716Z,1.00
2022-12-24T05:55:30.581Z,1.00
2022-12-24T05:57:57.520Z,1.00
2022-12-24T06:00:24.618Z,1.00
2022-12-24T06:02:51.732Z,1.00
2022-12-24T06:05:18.672Z,1.00
2022-12-24T06:07:45.541Z,1.00
2022-12-24T06:10:12.465Z,1.00
2022-12-24T06:12:39.435Z,1.00
2022-12-24T06:15:07.065Z,1.00
2022-12-24T06:17:33.972Z,1.00
2022-12-24T06:20:00.871Z,1.00
2022-12-24T06:22:27.750Z,1.00
2022-12-24T06:24:54.658Z,1.00
2022-12-24T06:27:21.621Z,1.00
2022-12-24T06:29:48.507Z,1.00
2022-12-24T06:32:15.400Z,1.00
2022-12-24T06:34:42.338Z,1.00
2022-12-24T06:37:16.473Z,1.00
2022-12-24T06:39:43.367Z,1.00
2022-12-24T06:42:10.569Z,1.00
2022-12-24T06:44:37.530Z,1.00
2022-12-24T06:47:04.555Z,1.00
2022-12-24T06:49:31.559Z,1.00
2022-12-24T06:51:58.539Z,1.00
2022-12-24T06:54:25.835Z,1.00
2022-12-24T06:56:52.722Z,1.00
2022-12-24T07:04:38.702Z,1.00
2022-12-24T07:07:15.790Z,1.00
2022-12-24T07:09:42.765Z,1.00
2022-12-24T07:12:09.701Z,1.00
2022-12-24T07:14:36.617Z,1.00
2022-12-24T07:17:03.766Z,1.00
2022-12-24T07:19:30.727Z,1.00
2022-12-24T07:21:57.623Z,1.00
2022-12-24T07:24:24.550Z,1.00
2022-12-24T07:26:51.443Z,1.00
2022-12-24T07:29:18.389Z,1.00
2022-12-24T07:31:45.400Z,1.00
2022-12-24T07:34:12.330Z,1.00
2022-12-24T07:36:39.197Z,1.00
2022-12-24T07:39:06.093Z,1.00
2022-12-24T07:41:36.365Z,1.00
2022-12-24T07:44:12.905Z,1.00
2022-12-24T07:46:40.271Z,1.00
2022-12-24T07:49:07.497Z,1.00
2022-12-24T07:51:34.402Z,1.00
2022-12-24T07:54:01.388Z,1.00
2022-12-24T07:56:28.389Z,1.00
2022-12-24T08:28:30.227Z,1.00
2022-12-24T08:30:57.178Z,1.00
2022-12-24T08:33:24.090Z,1.00
2022-12-24T08:35:53.278Z,1.00
2022-12-24T08:38:20.889Z,1.00
2022-12-24T08:40:50.111Z,1.00
2022-12-24T08:43:18.038Z,1.00
2022-12-24T08:45:45.999Z,1.00
2022-12-24T08:48:13.101Z,1.00
2022-12-24T08:50:41.023Z,1.00
2022-12-24T08:53:09.377Z,1.00
2022-12-24T08:55:36.495Z,1.00
2022-12-24T08:58:03.669Z,1.00
2022-12-24T09:00:30.645Z,1.00
2022-12-24T09:02:58.590Z,1.00
2022-12-24T09:05:26.190Z,1.00
2022-12-24T09:07:53.747Z,1.00
2022-12-24T09:10:21.160Z,1.00
2022-12-24T09:12:48.198Z,1.00
2022-12-24T09:15:15.282Z,1.00
2022-12-24T09:17:42.441Z,1.00
2022-12-24T09:20:10.573Z,1.00
2022-12-24T09:22:38.941Z,1.00
2022-12-24T09:25:06.782Z,1.00
2022-12-24T09:27:34.074Z,1.00
2022-12-24T09:30:01.068Z,1.00
2022-12-24T09:32:28.083Z,1.00
2022-12-24T09:34:55.033Z,1.00
2022-12-24T09:37:22.033Z,1.00
2022-12-24T09:39:48.939Z,1.00
2022-12-24T09:42:42.893Z,1.00
2022-12-24T09:45:22.772Z,1.00
2022-12-24T09:47:55.932Z,1.00
2022-12-24T09:50:27.538Z,1.00
2022-12-24T09:52:55.895Z,1.00
2022-12-24T09:55:43.019Z,1.00
2022-12-24T09:58:43.735Z,1.00
2022-12-24T10:01:16.466Z,1.00
2022-12-24T10:03:44.642Z,1.00
2022-12-24T10:06:18.597Z,1.00
2022-12-24T10:09:17.011Z,1.00
2022-12-24T10:11:56.707Z,1.00
2022-12-24T10:14:58.480Z,1.00
2022-12-24T10:17:28.359Z,1.00
2022-12-24T10:20:30.164Z,1.00
2022-12-24T10:23:18.843Z,1.00
2022-12-24T10:26:10.703Z,1.00
2022-12-24T10:28:52.369Z,1.00
2022-12-24T10:31:32.097Z,1.00
2022-12-24T10:34:02.399Z,1.00
2022-12-24T10:36:31.063Z,1.00
2022-12-24T10:38:58.834Z,1.00
2022-12-24T10:41:27.440Z,1.00
2022-12-24T10:43:55.367Z,1.00
2022-12-24T10:46:35.205Z,1.00
2022-12-24T10:49:07.497Z,1.00
2022-12-24T10:51:57.955Z,1.00
2022-12-24T10:54:28.244Z,1.00
2022-12-24T10:57:02.813Z,1.00
2022-12-24T10:59:53.884Z,1.00
2022-12-24T11:02:33.730Z,1.00
2022-12-24T11:05:02.588Z,1.00
2022-12-24T11:07:31.468Z,1.00
2022-12-24T11:10:04.904Z,1.00
2022-12-24T11:12:38.927Z,1.00
2022-12-24T11:15:06.194Z,1.00
2022-12-24T11:17:34.284Z,1.00
2022-12-24T11:20:03.465Z,1.00
2022-12-24T11:22:32.676Z,1.00
2022-12-24T11:25:22.478Z,1.00
2022-12-24T11:27:51.806Z,1.00
2022-12-24T11:30:22.244Z,1.00
2022-12-24T11:32:51.750Z,1.00
2022-12-24T11:35:22.931Z,1.00
2022-12-24T11:38:12.245Z,1.00
2022-12-24T11:40:45.087Z,1.00
2022-12-24T11:43:20.963Z,1.00
2022-12-24T11:45:56.513Z,1.00
2022-12-24T11:48:33.475Z,1.00
2022-12-24T11:51:01.751Z,1.00
2022-12-24T11:53:56.078Z,1.00
2022-12-24T11:56:46.088Z,1.00
2022-12-24T11:59:26.203Z,1.00
2022-12-24T12:02:17.520Z,1.00
2022-12-24T12:04:49.973Z,1.00
2022-12-24T12:07:26.255Z,1.00
2022-12-24T12:10:11.629Z,1.00
2022-12-24T12:12:43.253Z,1.00
2022-12-24T12:15:13.074Z,1.00
2022-12-24T12:17:50.809Z,1.00
2022-12-24T12:20:28.712Z,1.00
2022-12-24T12:23:31.127Z,1.00
2022-12-24T12:25:59.846Z,1.00
2022-12-24T12:28:37.754Z,1.00
2022-12-24T12:31:34.427Z,1.00
2022-12-24T12:34:06.159Z,1.00
2022-12-24T12:36:41.664Z,1.00
2022-12-24T12:39:11.105Z,1.00
2022-12-24T12:42:19.332Z,1.00
2022-12-24T12:44:58.428Z,1.00
2022-12-24T12:47:59.224Z,1.00
2022-12-24T12:50:35.556Z,1.00
2022-12-24T12:53:29.885Z,1.00
2022-12-24T12:56:15.587Z,1.00
2022-12-24T12:59:03.435Z,1.00
2022-12-24T13:02:07.827Z,1.00
2022-12-24T13:05:03.340Z,1.00
2022-12-24T13:07:54.170Z,1.00
2022-12-24T13:10:23.736Z,1.00
2022-12-24T13:13:20.745Z,1.00
2022-12-24T13:15:47.715Z,1.00
2022-12-24T13:18:47.229Z,1.00
2022-12-24T13:21:25.747Z,1.00
2022-12-24T13:24:13.950Z,1.00
2022-12-24T13:26:41.340Z,1.00
2022-12-24T13:29:49.798Z,1.00
2022-12-24T13:32:38.232Z,1.00
2022-12-24T13:35:36.900Z,1.00
2022-12-24T13:38:31.595Z,1.00
2022-12-24T13:41:38.943Z,1.00
2022-12-24T13:44:13.589Z,1.00
2022-12-24T13:46:52.376Z,1.00
2022-12-24T13:49:35.709Z,1.00
2022-12-24T13:52:33.574Z,1.00
2022-12-24T13:55:07.029Z,1.00
2022-12-24T13:57:48.264Z,1.00
2022-12-24T14:00:21.281Z,1.00
2022-12-24T14:02:51.195Z,1.00
2022-12-24T14:05:25.679Z,1.00
2022-12-24T14:07:54.822Z,1.00
2022-12-24T14:10:29.362Z,1.00
2022-12-24T14:12:56.400Z,1.00
2022-12-24T14:15:50.918Z,1.00
2022-12-24T14:18:23.697Z,1.00
2022-12-24T14:20:56.667Z,1.00
2022-12-24T14:23:49.615Z,1.00
2022-12-24T14:26:19.851Z,1.00
2022-12-24T14:29:07.578Z,1.00
2022-12-24T14:31:34.489Z,1.00
2022-12-24T14:34:12.425Z,1.00
2022-12-24T14:36:40.478Z,1.00
2022-12-24T14:39:10.810Z,1.00
2022-12-24T14:41:42.895Z,1.00
2022-12-24T14:44:37.520Z,1.00
2022-12-24T14:47:22.123Z,1.00
2022-12-24T14:49:54.745Z,1.00
2022-12-24T14:55:41.470Z,1.00
2022-12-24T14:58:19.741Z,1.00
2022-12-24T15:00:46.849Z,1.00
2022-12-24T15:03:19.980Z,1.00
2022-12-24T15:05:55.428Z,1.00
2022-12-24T15:08:36.755Z,1.00
2022-12-24T15:11:08.192Z,1.00
2022-12-24T15:13:39.057Z,1.00
2022-12-24T15:16:09.830Z,1.00
2022-12-24T15:18:42.089Z,1.00
2022-12-24T15:21:36.402Z,1.00
2022-12-24T15:24:04.318Z,1.00
2022-12-24T15:26:36.719Z,1.00
2022-12-24T15:29:21.298Z,1.00
2022-12-24T15:31:54.476Z,1.00
2022-12-24T15:34:42.807Z,1.00
2022-12-24T15:37:21.682Z,1.00
2022-12-24T15:40:00.481Z,1.00
2022-12-24T15:42:28.536Z,1.00
2022-12-24T15:45:12.778Z,1.00
2022-12-24T15:47:57.282Z,1.00
2022-12-24T15:50:45.291Z,1.00
2022-12-24T15:53:18.063Z,1.00
2022-12-24T15:56:09.063Z,1.00
2022-12-24T15:58:39.972Z,1.00
2022-12-24T16:01:25.089Z,1.00
2022-12-24T16:03:52.105Z,1.00
2022-12-24T16:06:19.686Z,1.00
2022-12-24T16:08:47.499Z,1.00
2022-12-24T16:11:35.364Z,1.00
2022-12-24T16:14:18.902Z,1.00
2022-12-24T16:16:50.714Z,1.00
2022-12-24T16:19:23.053Z,1.00
2022-12-24T16:21:58.742Z,1.00
2022-12-24T16:24:29.066Z,1.00
2022-12-24T16:26:57.827Z,1.00
2022-12-24T16:29:24.764Z,1.00
2022-12-24T16:31:52.817Z,1.00
2022-12-24T16:34:23.916Z,1.00
2022-12-24T16:36:50.850Z,1.00
2022-12-24T16:39:30.592Z,1.00
2022-12-24T16:42:21.048Z,1.00
2022-12-24T16:44:48.533Z,1.00
2022-12-24T16:47:22.602Z,1.00
2022-12-24T16:49:50.448Z,1.00
2022-12-24T16:52:26.318Z,1.00
2022-12-24T16:54:53.342Z,1.00
2022-12-24T16:57:22.227Z,1.00
2022-12-24T16:59:49.562Z,1.00
2022-12-24T17:02:22.266Z,1.00
2022-12-24T17:04:49.495Z,1.00
2022-12-24T17:07:18.740Z,1.00
2022-12-24T17:09:45.840Z,1.00
2022-12-24T17:12:13.828Z,1.00
2022-12-24T17:14:42.290Z,1.00
2022-12-24T17:17:27.968Z,1.00
2022-12-24T17:19:55.934Z,1.00
2022-12-24T17:22:23.682Z,1.00
2022-12-24T17:24:50.696Z,1.00
2022-12-24T17:27:17.668Z,1.00
2022-12-24T17:29:44.665Z,1.00
2022-12-24T17:32:11.683Z,1.00
2022-12-24T17:34:39.570Z,1.00
2022-12-24T17:37:06.467Z,1.00
2022-12-24T17:39:33.423Z,1.00
2022-12-24T17:42:00.279Z,1.00
2022-12-24T17:44:27.493Z,1.00
2022-12-24T17:46:54.523Z,1.00
2022-12-24T17:49:22.026Z,1.00
2022-12-24T17:57:38.323Z,1.00
2022-12-24T18:00:06.125Z,1.00
2022-12-24T18:02:33.229Z,1.00
2022-12-24T18:05:00.357Z,1.00
2022-12-24T18:07:27.280Z,1.00
2022-12-24T18:09:54.192Z,1.00
2022-12-24T18:12:21.120Z,1.00
2022-12-24T18:14:48.027Z,1.00
2022-12-24T18:17:14.951Z,1.00
2022-12-24T18:19:41.920Z,1.00
2022-12-24T18:22:08.857Z,1.00
2022-12-24T18:24:35.734Z,1.00
2022-12-24T18:27:03.062Z,1.00
2022-12-24T18:29:30.009Z,1.00
2022-12-24T18:31:57.039Z,1.00
2022-12-24T18:34:24.106Z,1.00
2022-12-24T18:36:55.090Z,1.00
2022-12-24T18:39:22.785Z,1.00
2022-12-24T18:41:49.729Z,1.00
2022-12-24T18:44:22.562Z,1.00
2022-12-24T18:46:51.801Z,1.00
2022-12-24T18:49:19.048Z,1.00
2022-12-24T18:51:45.937Z,1.00
2022-12-24T18:54:12.873Z,1.00
2022-12-24T18:56:39.844Z,1.00
2022-12-24T18:59:06.959Z,1.00
2022-12-24T19:01:35.469Z,1.00
2022-12-24T19:04:02.999Z,1.00
2022-12-24T19:06:30.346Z,1.00
2022-12-24T19:08:59.692Z,1.00
2022-12-24T19:11:30.252Z,1.00
2022-12-24T19:14:00.643Z,1.00
2022-12-24T19:16:29.690Z,1.00
2022-12-24T19:18:56.948Z,1.00
2022-12-24T19:21:23.969Z,1.00
2022-12-24T19:23:51.855Z,1.00
2022-12-24T19:26:20.367Z,1.00
2022-12-24T19:28:50.939Z,1.00
2022-12-24T19:31:34.595Z,1.00
2022-12-24T19:34:16.870Z,1.00
2022-12-24T19:36:50.984Z,1.00
2022-12-24T19:39:29.957Z,1.00
2022-12-24T19:41:59.754Z,1.00
2022-12-24T19:44:26.730Z,1.00
2022-12-24T19:46:53.674Z,1.00
2022-12-24T19:49:20.632Z,1.00
2022-12-24T19:51:47.529Z,1.00
2022-12-24T19:54:19.022Z,1.00
2022-12-24T19:56:46.944Z,1.00
2022-12-24T19:59:13.939Z,1.00
2022-12-24T20:01:41.067Z,1.00
2022-12-24T20:04:08.194Z,1.00
2022-12-24T20:06:35.633Z,1.00
2022-12-24T20:09:05.515Z,1.00
2022-12-24T20:11:32.526Z,1.00
2022-12-24T20:14:02.485Z,1.00
2022-12-24T20:16:30.198Z,1.00
2022-12-24T20:19:00.782Z,1.00
2022-12-24T20:21:28.476Z,1.00
2022-12-24T20:23:55.862Z,1.00
2022-12-24T20:26:26.147Z,1.00
2022-12-24T20:28:53.695Z,1.00
2022-12-24T20:31:26.786Z,1.00
2022-12-24T20:33:53.817Z,1.00
2022-12-24T20:36:22.278Z,1.00
2022-12-24T20:38:49.433Z,1.00
2022-12-24T20:41:19.233Z,1.00
2022-12-24T20:43:48.683Z,1.00
2022-12-24T20:46:17.785Z,1.00
2022-12-24T20:48:44.732Z,1.00
2022-12-24T20:51:23.256Z,1.00
2022-12-24T20:53:56.874Z,1.00
2022-12-24T20:56:24.559Z,1.00
2022-12-24T20:58:51.939Z,1.00
2022-12-24T21:01:21.878Z,1.00
2022-12-24T21:03:48.935Z,1.00
2022-12-24T21:06:18.024Z,1.00
2022-12-24T21:08:46.433Z,1.00
2022-12-24T21:11:32.903Z,1.00
2022-12-24T21:14:02.166Z,1.00
2022-12-24T21:16:30.941Z,1.00
2022-12-24T21:18:57.971Z,1.00
2022-12-24T21:21:24.879Z,1.00
2022-12-24T21:23:52.138Z,1.00
2022-12-24T21:26:19.194Z,1.00
2022-12-24T21:28:46.467Z,1.00
2022-12-24T21:31:14.934Z,1.00
2022-12-24T21:33:42.562Z,1.00
2022-12-24T21:36:11.931Z,1.00
2022-12-24T21:38:39.020Z,1.00
2022-12-24T21:41:12.223Z,1.00
2022-12-24T21:43:39.861Z,1.00
2022-12-24T21:46:09.084Z,1.00
2022-12-24T21:48:55.379Z,1.00
2022-12-24T21:51:23.887Z,1.00
2022-12-24T21:54:09.827Z,1.00
2022-12-24T21:56:57.217Z,1.00
2022-12-24T21:59:27.111Z,1.00
2022-12-24T22:01:55.293Z,1.00
2022-12-24T22:04:22.599Z,1.00
2022-12-24T22:07:08.066Z,1.00
2022-12-24T22:09:54.019Z,1.00
2022-12-24T22:12:21.015Z,1.00
2022-12-24T22:14:47.991Z,1.00
2022-12-24T22:17:19.810Z,1.00
2022-12-24T22:19:50.188Z,1.00
2022-12-24T22:22:17.237Z,1.00
2022-12-24T22:24:44.244Z,1.00
2022-12-24T22:27:11.476Z,1.00
2022-12-24T22:29:38.418Z,1.00
2022-12-24T22:32:05.706Z,1.00
2022-12-24T22:34:33.043Z,1.00
2022-12-24T22:36:59.934Z,1.00
2022-12-24T22:39:26.923Z,1.00
2022-12-24T22:41:53.872Z,1.00
2022-12-24T22:44:20.723Z,1.00
2022-12-24T22:46:47.638Z,1.00
2022-12-24T22:49:14.944Z,1.00
2022-12-24T22:51:41.843Z,1.00
2022-12-24T22:54:08.734Z,1.00
2022-12-24T22:56:40.660Z,1.00
2022-12-24T22:59:09.544Z,1.00
2022-12-24T23:01:39.884Z,1.00
2022-12-24T23:04:07.396Z,1.00
2022-12-24T23:06:35.045Z,1.00
2022-12-24T23:09:03.995Z,1.00
2022-12-24T23:11:31.108Z,1.00
2022-12-24T23:14:16.473Z,1.00
2022-12-24T23:16:43.541Z,1.00
2022-12-24T23:19:10.873Z,1.00
2022-12-24T23:21:38.568Z,1.00
2022-12-24T23:24:06.018Z,1.00
2022-12-24T23:26:32.908Z,1.00
2022-12-24T23:28:59.939Z,1.00
2022-12-24T23:31:27.163Z,1.00
2022-12-24T23:33:54.294Z,1.00
2022-12-24T23:36:21.410Z,1.00
2022-12-24T23:38:48.817Z,1.00
2022-12-24T23:41:18.070Z,1.00
2022-12-24T23:43:45.641Z,1.00
2022-12-24T23:46:17.635Z,1.00
2022-12-24T23:48:46.036Z,1.00
2022-12-24T23:51:16.294Z,1.00
2022-12-24T23:53:43.738Z,1.00
2022-12-24T23:56:11.718Z,1.00
2022-12-24T23:58:40.686Z,1.00
